Back to Top

Language: 

My Weather Underground Personal Weather Station Historical Data with Graphs...

Delerius Weather Station Historical Data
Daily Summary for January 27, 2018 Units:  Both    English   Metric
« Previous Day
Next Day »
Daily Weekly Monthly Yearly Custom
  High: Low: Average:
Temperature: 54.0 °F /  12.2 °C 36.9 °F /  2.7 °C 45 °F /  7.2 °C
Dew Point: 50.0 °F /  10 °C 34.8 °F /  1.6 °C 41.2 °F /  5.1 °C
Humidity: 93 % 76 % 87 %
Wind Speed: 30.0 mph /  48.3 km/h - 11.1 mph /  17.9 km/h
Wind Gust: 33.0 mph /  53.1 km/h - -
Wind:- - SW
Pressure: 30.25 in /  1024.3 hPa 29.99 in /  1015.5 hPa -
Precipitation: 0.00 in /  0 mm    
Historical Graphs
 
 
Tabular Data for January 27, 2018
Time Temperature Dew Point Pressure Wind Wind Speed Wind Gust Humidity Rainfall Rate (Hourly) solar Conditions
00:04 36.9 °F /  2.7 °C 34.8 °F /  1.6 °C 30.25 in /  1024.3 hPa Calm     92 % 0.00 in /  0 mm 0 W/m2
00:09 36.9 °F /  2.7 °C 34.8 °F /  1.6 °C 30.25 in /  1024.3 hPa Calm   2.0 mph /  3.2 km/h 92 % 0.00 in /  0 mm 0 W/m2
00:14 36.9 °F /  2.7 °C 35.0 °F /  1.7 °C 30.25 in /  1024.3 hPa Calm     93 % 0.00 in /  0 mm 0 W/m2
00:19 37.0 °F /  2.8 °C 35.2 °F /  1.8 °C 30.25 in /  1024.3 hPa SW 2.0 mph /  3.2 km/h 5.0 mph /  8 km/h 93 % 0.00 in /  0 mm 0 W/m2
00:24 37.2 °F /  2.9 °C 35.4 °F /  1.9 °C 30.25 in /  1024.3 hPa Calm     93 % 0.00 in /  0 mm 0 W/m2
00:29 37.2 °F /  2.9 °C 35.4 °F /  1.9 °C 30.25 in /  1024.3 hPa Calm     93 % 0.00 in /  0 mm 0 W/m2
00:34 37.2 °F /  2.9 °C 35.4 °F /  1.9 °C 30.25 in /  1024.3 hPa Calm     93 % 0.00 in /  0 mm 0 W/m2
00:39 37.4 °F /  3 °C 35.6 °F /  2 °C 30.25 in /  1024.3 hPa Calm     93 % 0.00 in /  0 mm 0 W/m2
00:44 37.6 °F /  3.1 °C 35.7 °F /  2.1 °C 30.25 in /  1024.3 hPa East 2.0 mph /  3.2 km/h 5.0 mph /  8 km/h 93 % 0.00 in /  0 mm 0 W/m2
00:49 37.8 °F /  3.2 °C 35.9 °F /  2.2 °C 30.25 in /  1024.3 hPa ESE 2.0 mph /  3.2 km/h 5.0 mph /  8 km/h 93 % 0.00 in /  0 mm 0 W/m2
00:54 37.9 °F /  3.3 °C 36.1 °F /  2.3 °C 30.24 in /  1023.9 hPa Calm     93 % 0.00 in /  0 mm 0 W/m2
00:59 37.9 °F /  3.3 °C 35.8 °F /  2.1 °C 30.24 in /  1023.9 hPa Calm     92 % 0.00 in /  0 mm 0 W/m2
01:04 37.9 °F /  3.3 °C 35.8 °F /  2.1 °C 30.24 in /  1023.9 hPa SW 2.0 mph /  3.2 km/h 5.0 mph /  8 km/h 92 % 0.00 in /  0 mm 0 W/m2
01:09 38.1 °F /  3.4 °C 36.3 °F /  2.4 °C 30.24 in /  1023.9 hPa SW 2.0 mph /  3.2 km/h 8.0 mph /  12.9 km/h 93 % 0.00 in /  0 mm 0 W/m2
01:14 38.5 °F /  3.6 °C 36.6 °F /  2.6 °C 30.24 in /  1023.9 hPa SW 3.0 mph /  4.8 km/h 13.0 mph /  20.9 km/h 93 % 0.00 in /  0 mm 0 W/m2
01:19 39.6 °F /  4.2 °C 37.7 °F /  3.2 °C 30.24 in /  1023.9 hPa SW 8.0 mph /  12.9 km/h 13.0 mph /  20.9 km/h 93 % 0.00 in /  0 mm 0 W/m2
01:24 39.9 °F /  4.4 °C 37.8 °F /  3.2 °C 30.24 in /  1023.9 hPa WSW 6.0 mph /  9.7 km/h 11.0 mph /  17.7 km/h 92 % 0.00 in /  0 mm 0 W/m2
01:29 40.5 °F /  4.7 °C 38.0 °F /  3.3 °C 30.24 in /  1023.9 hPa WSW 8.0 mph /  12.9 km/h 14.0 mph /  22.5 km/h 91 % 0.00 in /  0 mm 0 W/m2
01:34 40.6 °F /  4.8 °C 37.9 °F /  3.3 °C 30.24 in /  1023.9 hPa WSW 8.0 mph /  12.9 km/h 12.0 mph /  19.3 km/h 90 % 0.00 in /  0 mm 0 W/m2
01:39 40.8 °F /  4.9 °C 37.8 °F /  3.2 °C 30.23 in /  1023.6 hPa SW 9.0 mph /  14.5 km/h 13.0 mph /  20.9 km/h 89 % 0.00 in /  0 mm 0 W/m2
01:44 40.8 °F /  4.9 °C 37.8 °F /  3.2 °C 30.23 in /  1023.6 hPa SW 11.0 mph /  17.7 km/h 18.0 mph /  29 km/h 89 % 0.00 in /  0 mm 0 W/m2
01:49 41.0 °F /  5 °C 37.7 °F /  3.2 °C 30.23 in /  1023.6 hPa WSW 8.0 mph /  12.9 km/h 12.0 mph /  19.3 km/h 88 % 0.00 in /  0 mm 0 W/m2
01:54 41.0 °F /  5 °C 37.7 °F /  3.2 °C 30.23 in /  1023.6 hPa SW 11.0 mph /  17.7 km/h 15.0 mph /  24.1 km/h 88 % 0.00 in /  0 mm 0 W/m2
01:59 41.0 °F /  5 °C 37.7 °F /  3.2 °C 30.22 in /  1023.2 hPa SW 11.0 mph /  17.7 km/h 19.0 mph /  30.6 km/h 88 % 0.00 in /  0 mm 0 W/m2
02:04 41.2 °F /  5.1 °C 37.9 °F /  3.3 °C 30.22 in /  1023.2 hPa SW 12.0 mph /  19.3 km/h 18.0 mph /  29 km/h 88 % 0.00 in /  0 mm 0 W/m2
02:09 41.2 °F /  5.1 °C 37.6 °F /  3.1 °C 30.22 in /  1023.2 hPa SW 11.0 mph /  17.7 km/h 15.0 mph /  24.1 km/h 87 % 0.00 in /  0 mm 0 W/m2
02:14 41.0 °F /  5 °C 37.4 °F /  3 °C 30.23 in /  1023.6 hPa WSW 8.0 mph /  12.9 km/h 13.0 mph /  20.9 km/h 87 % 0.00 in /  0 mm 0 W/m2
02:19 41.0 °F /  5 °C 37.4 °F /  3 °C 30.23 in /  1023.6 hPa SW 10.0 mph /  16.1 km/h 15.0 mph /  24.1 km/h 87 % 0.00 in /  0 mm 0 W/m2
02:24 40.8 °F /  4.9 °C 37.3 °F /  2.9 °C 30.23 in /  1023.6 hPa SW 8.0 mph /  12.9 km/h 12.0 mph /  19.3 km/h 87 % 0.00 in /  0 mm 0 W/m2
02:29 40.8 °F /  4.9 °C 37.3 °F /  2.9 °C 30.23 in /  1023.6 hPa SW 9.0 mph /  14.5 km/h 13.0 mph /  20.9 km/h 87 % 0.00 in /  0 mm 0 W/m2
02:34 40.8 °F /  4.9 °C 37.3 °F /  2.9 °C 30.23 in /  1023.6 hPa SW 8.0 mph /  12.9 km/h 13.0 mph /  20.9 km/h 87 % 0.00 in /  0 mm 0 W/m2
02:39 40.6 °F /  4.8 °C 37.1 °F /  2.8 °C 30.24 in /  1023.9 hPa SW 6.0 mph /  9.7 km/h 9.0 mph /  14.5 km/h 87 % 0.00 in /  0 mm 0 W/m2
02:44 40.5 °F /  4.7 °C 36.9 °F /  2.7 °C 30.24 in /  1023.9 hPa SW 7.0 mph /  11.3 km/h 11.0 mph /  17.7 km/h 87 % 0.00 in /  0 mm 0 W/m2
02:49 40.3 °F /  4.6 °C 36.7 °F /  2.6 °C 30.24 in /  1023.9 hPa SW 4.0 mph /  6.4 km/h 8.0 mph /  12.9 km/h 87 % 0.00 in /  0 mm 0 W/m2
02:54 40.3 °F /  4.6 °C 36.7 °F /  2.6 °C 30.23 in /  1023.6 hPa SW 4.0 mph /  6.4 km/h 7.0 mph /  11.3 km/h 87 % 0.00 in /  0 mm 0 W/m2
02:59 39.9 °F /  4.4 °C 36.4 °F /  2.4 °C 30.23 in /  1023.6 hPa SSW 3.0 mph /  4.8 km/h 7.0 mph /  11.3 km/h 87 % 0.00 in /  0 mm 0 W/m2
03:04 39.7 °F /  4.3 °C 36.5 °F /  2.5 °C 30.23 in /  1023.6 hPa SSW 5.0 mph /  8 km/h 9.0 mph /  14.5 km/h 88 % 0.00 in /  0 mm 0 W/m2
03:09 39.6 °F /  4.2 °C 36.3 °F /  2.4 °C 30.23 in /  1023.6 hPa SSW 6.0 mph /  9.7 km/h 8.0 mph /  12.9 km/h 88 % 0.00 in /  0 mm 0 W/m2
03:14 39.6 °F /  4.2 °C 36.3 °F /  2.4 °C 30.23 in /  1023.6 hPa SSW 5.0 mph /  8 km/h 8.0 mph /  12.9 km/h 88 % 0.00 in /  0 mm 0 W/m2
03:19 39.4 °F /  4.1 °C 36.1 °F /  2.3 °C 30.23 in /  1023.6 hPa SW 7.0 mph /  11.3 km/h 9.0 mph /  14.5 km/h 88 % 0.00 in /  0 mm 0 W/m2
03:24 39.2 °F /  4 °C 35.9 °F /  2.2 °C 30.23 in /  1023.6 hPa SW 7.0 mph /  11.3 km/h 10.0 mph /  16.1 km/h 88 % 0.00 in /  0 mm 0 W/m2
03:30 39.0 °F /  3.9 °C 36.1 °F /  2.3 °C 30.23 in /  1023.6 hPa SW 7.0 mph /  11.3 km/h 9.0 mph /  14.5 km/h 89 % 0.00 in /  0 mm 0 W/m2
03:35 39.0 °F /  3.9 °C 36.1 °F /  2.3 °C 30.22 in /  1023.2 hPa SW 7.0 mph /  11.3 km/h 11.0 mph /  17.7 km/h 89 % 0.00 in /  0 mm 0 W/m2
03:40 39.0 °F /  3.9 °C 36.1 °F /  2.3 °C 30.22 in /  1023.2 hPa SSW 6.0 mph /  9.7 km/h 9.0 mph /  14.5 km/h 89 % 0.00 in /  0 mm 0 W/m2
03:45 38.8 °F /  3.8 °C 35.9 °F /  2.2 °C 30.22 in /  1023.2 hPa SSW 5.0 mph /  8 km/h 9.0 mph /  14.5 km/h 89 % 0.00 in /  0 mm 0 W/m2
03:50 39.0 °F /  3.9 °C 36.1 °F /  2.3 °C 30.22 in /  1023.2 hPa SSW 5.0 mph /  8 km/h 9.0 mph /  14.5 km/h 89 % 0.00 in /  0 mm 0 W/m2
03:55 39.0 °F /  3.9 °C 36.1 °F /  2.3 °C 30.22 in /  1023.2 hPa South 7.0 mph /  11.3 km/h 12.0 mph /  19.3 km/h 89 % 0.00 in /  0 mm 0 W/m2
04:00 39.0 °F /  3.9 °C 36.1 °F /  2.3 °C 30.21 in /  1022.9 hPa South 7.0 mph /  11.3 km/h 11.0 mph /  17.7 km/h 89 % 0.00 in /  0 mm 0 W/m2
04:05 39.2 °F /  4 °C 36.2 °F /  2.3 °C 30.20 in /  1022.6 hPa South 7.0 mph /  11.3 km/h 13.0 mph /  20.9 km/h 89 % 0.00 in /  0 mm 0 W/m2
04:10 39.4 °F /  4.1 °C 36.4 °F /  2.4 °C 30.20 in /  1022.6 hPa South 7.0 mph /  11.3 km/h 11.0 mph /  17.7 km/h 89 % 0.00 in /  0 mm 0 W/m2
04:15 39.4 °F /  4.1 °C 36.4 °F /  2.4 °C 30.20 in /  1022.6 hPa South 7.0 mph /  11.3 km/h 12.0 mph /  19.3 km/h 89 % 0.00 in /  0 mm 0 W/m2
04:20 39.2 °F /  4 °C 36.2 °F /  2.3 °C 30.20 in /  1022.6 hPa SSW 8.0 mph /  12.9 km/h 12.0 mph /  19.3 km/h 89 % 0.00 in /  0 mm 0 W/m2
04:25 39.2 °F /  4 °C 36.2 °F /  2.3 °C 30.20 in /  1022.6 hPa South 8.0 mph /  12.9 km/h 14.0 mph /  22.5 km/h 89 % 0.00 in /  0 mm 0 W/m2
04:30 39.2 °F /  4 °C 36.2 °F /  2.3 °C 30.20 in /  1022.6 hPa SSW 8.0 mph /  12.9 km/h 13.0 mph /  20.9 km/h 89 % 0.00 in /  0 mm 0 W/m2
04:35 39.0 °F /  3.9 °C 36.1 °F /  2.3 °C 30.19 in /  1022.2 hPa SSW 10.0 mph /  16.1 km/h 19.0 mph /  30.6 km/h 89 % 0.00 in /  0 mm 0 W/m2
04:40 39.0 °F /  3.9 °C 36.3 °F /  2.4 °C 30.19 in /  1022.2 hPa SSW 13.0 mph /  20.9 km/h 18.0 mph /  29 km/h 90 % 0.00 in /  0 mm 0 W/m2
04:45 39.4 °F /  4.1 °C 36.7 °F /  2.6 °C 30.19 in /  1022.2 hPa SSW 13.0 mph /  20.9 km/h 18.0 mph /  29 km/h 90 % 0.00 in /  0 mm 0 W/m2
04:50 39.4 °F /  4.1 °C 36.4 °F /  2.4 °C 30.19 in /  1022.2 hPa SSW 12.0 mph /  19.3 km/h 18.0 mph /  29 km/h 89 % 0.00 in /  0 mm 0 W/m2
04:55 39.6 °F /  4.2 °C 36.6 °F /  2.6 °C 30.19 in /  1022.2 hPa SSW 11.0 mph /  17.7 km/h 20.0 mph /  32.2 km/h 89 % 0.00 in /  0 mm 0 W/m2
05:00 39.4 °F /  4.1 °C 36.4 °F /  2.4 °C 30.19 in /  1022.2 hPa SSW 8.0 mph /  12.9 km/h 12.0 mph /  19.3 km/h 89 % 0.00 in /  0 mm 0 W/m2
05:05 39.2 °F /  4 °C 36.2 °F /  2.3 °C 30.19 in /  1022.2 hPa SSW 6.0 mph /  9.7 km/h 9.0 mph /  14.5 km/h 89 % 0.00 in /  0 mm 0 W/m2
05:10 39.0 °F /  3.9 °C 36.1 °F /  2.3 °C 30.18 in /  1021.9 hPa SSW 4.0 mph /  6.4 km/h 7.0 mph /  11.3 km/h 89 % 0.00 in /  0 mm 0 W/m2
05:15 39.0 °F /  3.9 °C 36.3 °F /  2.4 °C 30.18 in /  1021.9 hPa SSW 8.0 mph /  12.9 km/h 12.0 mph /  19.3 km/h 90 % 0.00 in /  0 mm 0 W/m2
05:20 39.0 °F /  3.9 °C 36.3 °F /  2.4 °C 30.18 in /  1021.9 hPa South 8.0 mph /  12.9 km/h 15.0 mph /  24.1 km/h 90 % 0.00 in /  0 mm 0 W/m2
05:25 39.4 °F /  4.1 °C 36.7 °F /  2.6 °C 30.18 in /  1021.9 hPa SSW 9.0 mph /  14.5 km/h 14.0 mph /  22.5 km/h 90 % 0.00 in /  0 mm 0 W/m2
05:30 39.4 °F /  4.1 °C 36.7 °F /  2.6 °C 30.18 in /  1021.9 hPa SSW 10.0 mph /  16.1 km/h 16.0 mph /  25.7 km/h 90 % 0.00 in /  0 mm 0 W/m2
05:35 39.6 °F /  4.2 °C 36.6 °F /  2.6 °C 30.17 in /  1021.6 hPa SSW 7.0 mph /  11.3 km/h 12.0 mph /  19.3 km/h 89 % 0.00 in /  0 mm 0 W/m2
05:40 39.6 °F /  4.2 °C 36.6 °F /  2.6 °C 30.17 in /  1021.6 hPa South 9.0 mph /  14.5 km/h 14.0 mph /  22.5 km/h 89 % 0.00 in /  0 mm 0 W/m2
05:45 39.6 °F /  4.2 °C 36.6 °F /  2.6 °C 30.17 in /  1021.6 hPa SSW 9.0 mph /  14.5 km/h 12.0 mph /  19.3 km/h 89 % 0.00 in /  0 mm 0 W/m2
05:50 39.4 °F /  4.1 °C 36.4 °F /  2.4 °C 30.17 in /  1021.6 hPa SW 10.0 mph /  16.1 km/h 15.0 mph /  24.1 km/h 89 % 0.00 in /  0 mm 0 W/m2
05:55 39.4 °F /  4.1 °C 36.4 °F /  2.4 °C 30.17 in /  1021.6 hPa SSW 9.0 mph /  14.5 km/h 14.0 mph /  22.5 km/h 89 % 0.00 in /  0 mm 0 W/m2
06:00 39.2 °F /  4 °C 36.2 °F /  2.3 °C 30.17 in /  1021.6 hPa South 8.0 mph /  12.9 km/h 11.0 mph /  17.7 km/h 89 % 0.00 in /  0 mm 0 W/m2
06:05 39.0 °F /  3.9 °C 36.1 °F /  2.3 °C 30.17 in /  1021.6 hPa South 7.0 mph /  11.3 km/h 12.0 mph /  19.3 km/h 89 % 0.00 in /  0 mm 0 W/m2
06:10 39.0 °F /  3.9 °C 36.3 °F /  2.4 °C 30.17 in /  1021.6 hPa South 5.0 mph /  8 km/h 8.0 mph /  12.9 km/h 90 % 0.00 in /  0 mm 0 W/m2
06:15 39.0 °F /  3.9 °C 36.3 °F /  2.4 °C 30.16 in /  1021.2 hPa South 7.0 mph /  11.3 km/h 11.0 mph /  17.7 km/h 90 % 0.00 in /  0 mm 0 W/m2
06:20 39.0 °F /  3.9 °C 36.3 °F /  2.4 °C 30.16 in /  1021.2 hPa South 9.0 mph /  14.5 km/h 13.0 mph /  20.9 km/h 90 % 0.00 in /  0 mm 0 W/m2
06:25 39.0 °F /  3.9 °C 36.3 °F /  2.4 °C 30.16 in /  1021.2 hPa South 6.0 mph /  9.7 km/h 9.0 mph /  14.5 km/h 90 % 0.00 in /  0 mm 0 W/m2
06:30 39.2 °F /  4 °C 36.5 °F /  2.5 °C 30.16 in /  1021.2 hPa SSW 7.0 mph /  11.3 km/h 12.0 mph /  19.3 km/h 90 % 0.00 in /  0 mm 0 W/m2
06:35 39.7 °F /  4.3 °C 37.3 °F /  2.9 °C 30.15 in /  1020.9 hPa SSW 7.0 mph /  11.3 km/h 12.0 mph /  19.3 km/h 91 % 0.00 in /  0 mm 0 W/m2
06:40 40.3 °F /  4.6 °C 37.6 °F /  3.1 °C 30.15 in /  1020.9 hPa SSW 9.0 mph /  14.5 km/h 15.0 mph /  24.1 km/h 90 % 0.00 in /  0 mm 0 W/m2
06:45 40.5 °F /  4.7 °C 37.5 °F /  3.1 °C 30.15 in /  1020.9 hPa South 9.0 mph /  14.5 km/h 15.0 mph /  24.1 km/h 89 % 0.00 in /  0 mm 0 W/m2
06:50 40.6 °F /  4.8 °C 37.7 °F /  3.2 °C 30.15 in /  1020.9 hPa South 6.0 mph /  9.7 km/h 10.0 mph /  16.1 km/h 89 % 0.00 in /  0 mm 0 W/m2
06:55 40.5 °F /  4.7 °C 37.5 °F /  3.1 °C 30.15 in /  1020.9 hPa SSE 6.0 mph /  9.7 km/h 10.0 mph /  16.1 km/h 89 % 0.00 in /  0 mm 0 W/m2
07:00 40.5 °F /  4.7 °C 37.5 °F /  3.1 °C 30.14 in /  1020.5 hPa SSE 5.0 mph /  8 km/h 9.0 mph /  14.5 km/h 89 % 0.00 in /  0 mm 0 W/m2
07:05 40.5 °F /  4.7 °C 37.2 °F /  2.9 °C 30.14 in /  1020.5 hPa ESE 5.0 mph /  8 km/h 9.0 mph /  14.5 km/h 88 % 0.00 in /  0 mm 0 W/m2
07:10 40.5 °F /  4.7 °C 37.5 °F /  3.1 °C 30.14 in /  1020.5 hPa ESE 5.0 mph /  8 km/h 7.0 mph /  11.3 km/h 89 % 0.00 in /  0 mm 0 W/m2
07:15 40.5 °F /  4.7 °C 37.5 °F /  3.1 °C 30.14 in /  1020.5 hPa SE 7.0 mph /  11.3 km/h 10.0 mph /  16.1 km/h 89 % 0.00 in /  0 mm 0 W/m2
07:20 40.5 °F /  4.7 °C 37.5 °F /  3.1 °C 30.14 in /  1020.5 hPa SSE 3.0 mph /  4.8 km/h 7.0 mph /  11.3 km/h 89 % 0.00 in /  0 mm 0 W/m2
07:25 40.6 °F /  4.8 °C 37.7 °F /  3.2 °C 30.13 in /  1020.2 hPa ESE 3.0 mph /  4.8 km/h 5.0 mph /  8 km/h 89 % 0.00 in /  0 mm 0 W/m2
07:30 40.6 °F /  4.8 °C 37.7 °F /  3.2 °C 30.13 in /  1020.2 hPa SSW 2.0 mph /  3.2 km/h 7.0 mph /  11.3 km/h 89 % 0.00 in /  0 mm 0 W/m2
07:35 41.4 °F /  5.2 °C 38.6 °F /  3.7 °C 30.13 in /  1020.2 hPa SW 7.0 mph /  11.3 km/h 13.0 mph /  20.9 km/h 90 % 0.00 in /  0 mm 0 W/m2
07:40 42.3 °F /  5.7 °C 39.5 °F /  4.2 °C 30.13 in /  1020.2 hPa SSW 13.0 mph /  20.9 km/h 18.0 mph /  29 km/h 90 % 0.00 in /  0 mm 0 W/m2
07:45 42.6 °F /  5.9 °C 39.6 °F /  4.2 °C 30.12 in /  1019.9 hPa SW 7.0 mph /  11.3 km/h 14.0 mph /  22.5 km/h 89 % 0.00 in /  0 mm 0 W/m2
07:50 43.0 °F /  6.1 °C 39.7 °F /  4.3 °C 30.12 in /  1019.9 hPa SSW 12.0 mph /  19.3 km/h 18.0 mph /  29 km/h 88 % 0.00 in /  0 mm 0 W/m2
07:55 43.0 °F /  6.1 °C 39.7 °F /  4.3 °C 30.11 in /  1019.5 hPa South 8.0 mph /  12.9 km/h 13.0 mph /  20.9 km/h 88 % 0.00 in /  0 mm 0 W/m2
08:00 43.0 °F /  6.1 °C 39.7 °F /  4.3 °C 30.11 in /  1019.5 hPa SSE 7.0 mph /  11.3 km/h 12.0 mph /  19.3 km/h 88 % 0.00 in /  0 mm 0 W/m2
08:05 43.0 °F /  6.1 °C 39.7 °F /  4.3 °C 30.11 in /  1019.5 hPa SE 7.0 mph /  11.3 km/h 11.0 mph /  17.7 km/h 88 % 0.00 in /  0 mm 0 W/m2
08:10 43.0 °F /  6.1 °C 39.7 °F /  4.3 °C 30.11 in /  1019.5 hPa SSE 8.0 mph /  12.9 km/h 13.0 mph /  20.9 km/h 88 % 0.00 in /  0 mm 0 W/m2
08:15 43.0 °F /  6.1 °C 39.7 °F /  4.3 °C 30.11 in /  1019.5 hPa South 7.0 mph /  11.3 km/h 15.0 mph /  24.1 km/h 88 % 0.00 in /  0 mm 0 W/m2
08:20 43.2 °F /  6.2 °C 40.1 °F /  4.5 °C 30.11 in /  1019.5 hPa South 9.0 mph /  14.5 km/h 23.0 mph /  37 km/h 89 % 0.00 in /  0 mm 5 W/m2
08:25 43.3 °F /  6.3 °C 40.0 °F /  4.4 °C 30.11 in /  1019.5 hPa South 9.0 mph /  14.5 km/h 22.0 mph /  35.4 km/h 88 % 0.00 in /  0 mm 7 W/m2
08:30 43.3 °F /  6.3 °C 40.0 °F /  4.4 °C 30.10 in /  1019.2 hPa South 9.0 mph /  14.5 km/h 14.0 mph /  22.5 km/h 88 % 0.00 in /  0 mm 11 W/m2
08:35 43.5 °F /  6.4 °C 40.2 °F /  4.6 °C 30.10 in /  1019.2 hPa South 13.0 mph /  20.9 km/h 21.0 mph /  33.8 km/h 88 % 0.00 in /  0 mm 11 W/m2
08:40 43.5 °F /  6.4 °C 40.2 °F /  4.6 °C 30.11 in /  1019.5 hPa South 11.0 mph /  17.7 km/h 18.0 mph /  29 km/h 88 % 0.00 in /  0 mm 11 W/m2
08:45 43.5 °F /  6.4 °C 40.2 °F /  4.6 °C 30.11 in /  1019.5 hPa SSW 12.0 mph /  19.3 km/h 20.0 mph /  32.2 km/h 88 % 0.00 in /  0 mm 12 W/m2
08:50 43.5 °F /  6.4 °C 40.2 °F /  4.6 °C 30.10 in /  1019.2 hPa South 9.0 mph /  14.5 km/h 15.0 mph /  24.1 km/h 88 % 0.00 in /  0 mm 16 W/m2
08:55 43.5 °F /  6.4 °C 40.2 °F /  4.6 °C 30.09 in /  1018.8 hPa SSW 13.0 mph /  20.9 km/h 21.0 mph /  33.8 km/h 88 % 0.00 in /  0 mm 19 W/m2
09:00 43.5 °F /  6.4 °C 40.2 °F /  4.6 °C 30.09 in /  1018.8 hPa South 13.0 mph /  20.9 km/h 22.0 mph /  35.4 km/h 88 % 0.00 in /  0 mm 23 W/m2
09:05 43.5 °F /  6.4 °C 40.5 °F /  4.7 °C 30.09 in /  1018.8 hPa South 12.0 mph /  19.3 km/h 21.0 mph /  33.8 km/h 89 % 0.00 in /  0 mm 25 W/m2
09:11 43.7 °F /  6.5 °C 40.7 °F /  4.8 °C 30.09 in /  1018.8 hPa South 11.0 mph /  17.7 km/h 19.0 mph /  30.6 km/h 89 % 0.00 in /  0 mm 23 W/m2
09:16 43.7 °F /  6.5 °C 40.7 °F /  4.8 °C 30.09 in /  1018.8 hPa South 9.0 mph /  14.5 km/h 16.0 mph /  25.7 km/h 89 % 0.00 in /  0 mm 28 W/m2
09:21 43.7 °F /  6.5 °C 40.7 °F /  4.8 °C 30.09 in /  1018.8 hPa South 11.0 mph /  17.7 km/h 21.0 mph /  33.8 km/h 89 % 0.00 in /  0 mm 30 W/m2
09:26 43.9 °F /  6.6 °C 40.8 °F /  4.9 °C 30.08 in /  1018.5 hPa SSW 12.0 mph /  19.3 km/h 18.0 mph /  29 km/h 89 % 0.00 in /  0 mm 28 W/m2
09:31 43.9 °F /  6.6 °C 40.8 °F /  4.9 °C 30.08 in /  1018.5 hPa SSW 11.0 mph /  17.7 km/h 18.0 mph /  29 km/h 89 % 0.00 in /  0 mm 28 W/m2
09:36 43.9 °F /  6.6 °C 40.8 °F /  4.9 °C 30.08 in /  1018.5 hPa SSW 11.0 mph /  17.7 km/h 19.0 mph /  30.6 km/h 89 % 0.00 in /  0 mm 30 W/m2
09:41 44.1 °F /  6.7 °C 41.0 °F /  5 °C 30.07 in /  1018.2 hPa SSW 13.0 mph /  20.9 km/h 20.0 mph /  32.2 km/h 89 % 0.00 in /  0 mm 28 W/m2
09:46 43.9 °F /  6.6 °C 40.8 °F /  4.9 °C 30.07 in /  1018.2 hPa SSW 10.0 mph /  16.1 km/h 15.0 mph /  24.1 km/h 89 % 0.00 in /  0 mm 26 W/m2
09:51 43.9 °F /  6.6 °C 41.1 °F /  5.1 °C 30.07 in /  1018.2 hPa SSW 10.0 mph /  16.1 km/h 21.0 mph /  33.8 km/h 90 % 0.00 in /  0 mm 28 W/m2
09:56 43.9 °F /  6.6 °C 41.1 °F /  5.1 °C 30.07 in /  1018.2 hPa SSW 11.0 mph /  17.7 km/h 15.0 mph /  24.1 km/h 90 % 0.00 in /  0 mm 30 W/m2
10:01 44.1 °F /  6.7 °C 41.6 °F /  5.3 °C 30.06 in /  1017.8 hPa SSW 13.0 mph /  20.9 km/h 22.0 mph /  35.4 km/h 91 % 0.00 in /  0 mm 37 W/m2
10:06 44.1 °F /  6.7 °C 41.6 °F /  5.3 °C 30.06 in /  1017.8 hPa SSW 10.0 mph /  16.1 km/h 19.0 mph /  30.6 km/h 91 % 0.00 in /  0 mm 35 W/m2
10:11 44.1 °F /  6.7 °C 41.6 °F /  5.3 °C 30.06 in /  1017.8 hPa SSW 10.0 mph /  16.1 km/h 19.0 mph /  30.6 km/h 91 % 0.00 in /  0 mm 39 W/m2
10:16 44.1 °F /  6.7 °C 41.6 °F /  5.3 °C 30.06 in /  1017.8 hPa South 12.0 mph /  19.3 km/h 22.0 mph /  35.4 km/h 91 % 0.00 in /  0 mm 39 W/m2
10:21 44.2 °F /  6.8 °C 41.8 °F /  5.4 °C 30.06 in /  1017.8 hPa SSW 9.0 mph /  14.5 km/h 16.0 mph /  25.7 km/h 91 % 0.00 in /  0 mm 40 W/m2
10:26 44.2 °F /  6.8 °C 41.8 °F /  5.4 °C 30.06 in /  1017.8 hPa SSW 10.0 mph /  16.1 km/h 14.0 mph /  22.5 km/h 91 % 0.00 in /  0 mm 33 W/m2
10:31 44.4 °F /  6.9 °C 42.0 °F /  5.6 °C 30.06 in /  1017.8 hPa SSW 13.0 mph /  20.9 km/h 21.0 mph /  33.8 km/h 91 % 0.00 in /  0 mm 33 W/m2
10:36 44.6 °F /  7 °C 42.1 °F /  5.6 °C 30.06 in /  1017.8 hPa SSW 12.0 mph /  19.3 km/h 21.0 mph /  33.8 km/h 91 % 0.00 in /  0 mm 47 W/m2
10:41 44.8 °F /  7.1 °C 42.3 °F /  5.7 °C 30.06 in /  1017.8 hPa SW 14.0 mph /  22.5 km/h 23.0 mph /  37 km/h 91 % 0.00 in /  0 mm 53 W/m2
10:46 44.8 °F /  7.1 °C 42.3 °F /  5.7 °C 30.06 in /  1017.8 hPa SSW 15.0 mph /  24.1 km/h 28.0 mph /  45.1 km/h 91 % 0.00 in /  0 mm 63 W/m2
10:51 44.8 °F /  7.1 °C 42.3 °F /  5.7 °C 30.06 in /  1017.8 hPa SW 17.0 mph /  27.4 km/h 26.0 mph /  41.8 km/h 91 % 0.00 in /  0 mm 67 W/m2
10:56 45.0 °F /  7.2 °C 42.5 °F /  5.8 °C 30.05 in /  1017.5 hPa SW 16.0 mph /  25.7 km/h 23.0 mph /  37 km/h 91 % 0.00 in /  0 mm 62 W/m2
11:01 45.0 °F /  7.2 °C 42.5 °F /  5.8 °C 30.05 in /  1017.5 hPa SW 14.0 mph /  22.5 km/h 22.0 mph /  35.4 km/h 91 % 0.00 in /  0 mm 58 W/m2
11:06 45.0 °F /  7.2 °C 42.5 °F /  5.8 °C 30.05 in /  1017.5 hPa SW 16.0 mph /  25.7 km/h 25.0 mph /  40.2 km/h 91 % 0.00 in /  0 mm 53 W/m2
11:11 45.0 °F /  7.2 °C 42.5 °F /  5.8 °C 30.05 in /  1017.5 hPa SW 16.0 mph /  25.7 km/h 24.0 mph /  38.6 km/h 91 % 0.00 in /  0 mm 51 W/m2
11:16 45.0 °F /  7.2 °C 42.5 °F /  5.8 °C 30.05 in /  1017.5 hPa SSW 12.0 mph /  19.3 km/h 24.0 mph /  38.6 km/h 91 % 0.00 in /  0 mm 51 W/m2
11:21 45.0 °F /  7.2 °C 42.5 °F /  5.8 °C 30.05 in /  1017.5 hPa SW 12.0 mph /  19.3 km/h 18.0 mph /  29 km/h 91 % 0.00 in /  0 mm 49 W/m2
11:26 45.0 °F /  7.2 °C 42.5 °F /  5.8 °C 30.05 in /  1017.5 hPa SW 14.0 mph /  22.5 km/h 23.0 mph /  37 km/h 91 % 0.00 in /  0 mm 53 W/m2
11:31 45.0 °F /  7.2 °C 42.5 °F /  5.8 °C 30.04 in /  1017.2 hPa SW 14.0 mph /  22.5 km/h 27.0 mph /  43.5 km/h 91 % 0.00 in /  0 mm 62 W/m2
11:36 45.0 °F /  7.2 °C 42.5 °F /  5.8 °C 30.05 in /  1017.5 hPa SW 14.0 mph /  22.5 km/h 23.0 mph /  37 km/h 91 % 0.00 in /  0 mm 63 W/m2
11:41 45.1 °F /  7.3 °C 42.7 °F /  5.9 °C 30.04 in /  1017.2 hPa SW 17.0 mph /  27.4 km/h 27.0 mph /  43.5 km/h 91 % 0.00 in /  0 mm 63 W/m2
11:46 45.1 °F /  7.3 °C 42.7 °F /  5.9 °C 30.04 in /  1017.2 hPa SW 15.0 mph /  24.1 km/h 25.0 mph /  40.2 km/h 91 % 0.00 in /  0 mm 65 W/m2
11:51 45.1 °F /  7.3 °C 43.0 °F /  6.1 °C 30.04 in /  1017.2 hPa SW 16.0 mph /  25.7 km/h 24.0 mph /  38.6 km/h 92 % 0.00 in /  0 mm 70 W/m2
11:56 45.3 °F /  7.4 °C 42.8 °F /  6 °C 30.04 in /  1017.2 hPa SW 20.0 mph /  32.2 km/h 30.0 mph /  48.3 km/h 91 % 0.00 in /  0 mm 76 W/m2
12:01 45.3 °F /  7.4 °C 43.1 °F /  6.2 °C 30.04 in /  1017.2 hPa SW 17.0 mph /  27.4 km/h 33.0 mph /  53.1 km/h 92 % 0.00 in /  0 mm 81 W/m2
12:06 45.3 °F /  7.4 °C 43.1 °F /  6.2 °C 30.04 in /  1017.2 hPa SW 16.0 mph /  25.7 km/h 25.0 mph /  40.2 km/h 92 % 0.00 in /  0 mm 91 W/m2
12:11 45.5 °F /  7.5 °C 43.3 °F /  6.3 °C 30.04 in /  1017.2 hPa SW 13.0 mph /  20.9 km/h 19.0 mph /  30.6 km/h 92 % 0.00 in /  0 mm 100 W/m2
12:16 45.7 °F /  7.6 °C 43.5 °F /  6.4 °C 30.04 in /  1017.2 hPa SW 14.0 mph /  22.5 km/h 22.0 mph /  35.4 km/h 92 % 0.00 in /  0 mm 98 W/m2
12:21 45.9 °F /  7.7 °C 43.7 °F /  6.5 °C 30.04 in /  1017.2 hPa SW 15.0 mph /  24.1 km/h 21.0 mph /  33.8 km/h 92 % 0.00 in /  0 mm 97 W/m2
12:26 46.0 °F /  7.8 °C 43.8 °F /  6.6 °C 30.04 in /  1017.2 hPa SW 15.0 mph /  24.1 km/h 23.0 mph /  37 km/h 92 % 0.00 in /  0 mm 91 W/m2
12:45 46.5 °F /  8.1 °C 44.0 °F /  6.7 °C 30.03 in /  1016.8 hPa SW 23.0 mph /  37 km/h 23.0 mph /  37 km/h 91 % 0.00 in /  0 mm 91 W/m2
13:00 47.1 °F /  8.4 °C 44.6 °F /  7 °C 30.02 in /  1016.5 hPa SW 24.0 mph /  38.6 km/h 24.0 mph /  38.6 km/h 91 % 0.00 in /  0 mm 81 W/m2
13:15 47.5 °F /  8.6 °C 45.3 °F /  7.4 °C 30.02 in /  1016.5 hPa SW 19.0 mph /  30.6 km/h 19.0 mph /  30.6 km/h 92 % 0.00 in /  0 mm 69 W/m2
13:30 47.9 °F /  8.8 °C 45.7 °F /  7.6 °C 30.02 in /  1016.5 hPa SW 19.0 mph /  30.6 km/h 19.0 mph /  30.6 km/h 92 % 0.00 in /  0 mm 68 W/m2
13:45 48.4 °F /  9.1 °C 45.9 °F /  7.7 °C 30.02 in /  1016.5 hPa SW 18.0 mph /  29 km/h 18.0 mph /  29 km/h 91 % 0.00 in /  0 mm 52 W/m2
14:00 48.8 °F /  9.3 °C 46.3 °F /  7.9 °C 30.01 in /  1016.1 hPa SW 20.0 mph /  32.2 km/h 20.0 mph /  32.2 km/h 91 % 0.00 in /  0 mm 89 W/m2
14:15 49.4 °F /  9.7 °C 46.9 °F /  8.3 °C 29.99 in /  1015.5 hPa SW 19.0 mph /  30.6 km/h 19.0 mph /  30.6 km/h 91 % 0.00 in /  0 mm 130 W/m2
14:30 50.2 °F /  10.1 °C 47.4 °F /  8.6 °C 29.99 in /  1015.5 hPa SW 19.0 mph /  30.6 km/h 19.0 mph /  30.6 km/h 90 % 0.00 in /  0 mm 117 W/m2
14:45 50.6 °F /  10.3 °C 47.5 °F /  8.6 °C 30.00 in /  1015.8 hPa SW 20.0 mph /  32.2 km/h 20.0 mph /  32.2 km/h 89 % 0.00 in /  0 mm 129 W/m2
15:00 51.1 °F /  10.6 °C 48.0 °F /  8.9 °C 30.01 in /  1016.1 hPa SW 16.0 mph /  25.7 km/h 16.0 mph /  25.7 km/h 89 % 0.00 in /  0 mm 116 W/m2
15:15 51.5 °F /  10.8 °C 48.4 °F /  9.1 °C 30.02 in /  1016.5 hPa SW 13.0 mph /  20.9 km/h 13.0 mph /  20.9 km/h 89 % 0.00 in /  0 mm 72 W/m2
15:30 52.3 °F /  11.3 °C 48.9 °F /  9.4 °C 30.02 in /  1016.5 hPa WSW 20.0 mph /  32.2 km/h 20.0 mph /  32.2 km/h 88 % 0.00 in /  0 mm 34 W/m2
15:45 52.5 °F /  11.4 °C 49.0 °F /  9.4 °C 30.02 in /  1016.5 hPa SW 20.0 mph /  32.2 km/h 20.0 mph /  32.2 km/h 88 % 0.00 in /  0 mm 17 W/m2
16:00 53.2 °F /  11.8 °C 49.1 °F /  9.5 °C 30.02 in /  1016.5 hPa WSW 22.0 mph /  35.4 km/h 22.0 mph /  35.4 km/h 86 % 0.00 in /  0 mm 18 W/m2
16:15 53.8 °F /  12.1 °C 49.7 °F /  9.8 °C 30.01 in /  1016.1 hPa WSW 24.0 mph /  38.6 km/h 24.0 mph /  38.6 km/h 86 % 0.00 in /  0 mm 8 W/m2
16:30 54.0 °F /  12.2 °C 49.9 °F /  9.9 °C 30.02 in /  1016.5 hPa WSW 27.0 mph /  43.5 km/h 27.0 mph /  43.5 km/h 86 % 0.00 in /  0 mm 1 W/m2
16:45 53.8 °F /  12.1 °C 50.0 °F /  10 °C 30.03 in /  1016.8 hPa WSW 20.0 mph /  32.2 km/h 20.0 mph /  32.2 km/h 87 % 0.00 in /  0 mm 0 W/m2
17:00 53.6 °F /  12 °C 49.5 °F /  9.7 °C 30.03 in /  1016.8 hPa WSW 25.0 mph /  40.2 km/h 25.0 mph /  40.2 km/h 86 % 0.00 in /  0 mm 0 W/m2
17:15 53.9 °F /  12.2 °C 49.5 °F /  9.7 °C 30.04 in /  1017.2 hPa WSW 30.0 mph /  48.3 km/h 30.0 mph /  48.3 km/h 85 % 0.00 in /  0 mm 0 W/m2
17:30 53.9 °F /  12.2 °C 49.5 °F /  9.7 °C 30.05 in /  1017.5 hPa WSW 26.0 mph /  41.8 km/h 26.0 mph /  41.8 km/h 85 % 0.00 in /  0 mm 0 W/m2
18:06 54.0 °F /  12.2 °C 49.9 °F /  9.9 °C 30.05 in /  1017.5 hPa West 11.0 mph /  17.7 km/h 14.0 mph /  22.5 km/h 86 % 0.00 in /  0 mm 0 W/m2
18:11 54.0 °F /  12.2 °C 49.9 °F /  9.9 °C 30.05 in /  1017.5 hPa West 14.0 mph /  22.5 km/h 23.0 mph /  37 km/h 86 % 0.00 in /  0 mm 0 W/m2
18:16 54.0 °F /  12.2 °C 49.9 °F /  9.9 °C 30.04 in /  1017.2 hPa West 18.0 mph /  29 km/h 29.0 mph /  46.7 km/h 86 % 0.00 in /  0 mm 0 W/m2
18:22 54.0 °F /  12.2 °C 49.9 °F /  9.9 °C 30.05 in /  1017.5 hPa West 11.0 mph /  17.7 km/h 19.0 mph /  30.6 km/h 86 % 0.00 in /  0 mm 0 W/m2
18:27 54.0 °F /  12.2 °C 49.9 °F /  9.9 °C 30.05 in /  1017.5 hPa West 13.0 mph /  20.9 km/h 21.0 mph /  33.8 km/h 86 % 0.00 in /  0 mm 0 W/m2
18:32 53.8 °F /  12.1 °C 49.4 °F /  9.7 °C 30.05 in /  1017.5 hPa West 16.0 mph /  25.7 km/h 27.0 mph /  43.5 km/h 85 % 0.00 in /  0 mm 0 W/m2
18:37 54.0 °F /  12.2 °C 49.6 °F /  9.8 °C 30.05 in /  1017.5 hPa West 15.0 mph /  24.1 km/h 23.0 mph /  37 km/h 85 % 0.00 in /  0 mm 0 W/m2
18:42 54.0 °F /  12.2 °C 49.6 °F /  9.8 °C 30.05 in /  1017.5 hPa WSW 17.0 mph /  27.4 km/h 26.0 mph /  41.8 km/h 85 % 0.00 in /  0 mm 0 W/m2
18:47 54.0 °F /  12.2 °C 49.2 °F /  9.6 °C 30.07 in /  1018.2 hPa West 17.0 mph /  27.4 km/h 25.0 mph /  40.2 km/h 84 % 0.00 in /  0 mm 0 W/m2
18:52 53.8 °F /  12.1 °C 49.1 °F /  9.5 °C 30.06 in /  1017.8 hPa West 15.0 mph /  24.1 km/h 23.0 mph /  37 km/h 84 % 0.00 in /  0 mm 0 W/m2
18:57 53.8 °F /  12.1 °C 49.1 °F /  9.5 °C 30.07 in /  1018.2 hPa West 21.0 mph /  33.8 km/h 32.0 mph /  51.5 km/h 84 % 0.00 in /  0 mm 0 W/m2
19:02 53.8 °F /  12.1 °C 49.1 °F /  9.5 °C 30.07 in /  1018.2 hPa West 16.0 mph /  25.7 km/h 28.0 mph /  45.1 km/h 84 % 0.00 in /  0 mm 0 W/m2
19:07 53.4 °F /  11.9 °C 48.7 °F /  9.3 °C 30.07 in /  1018.2 hPa West 17.0 mph /  27.4 km/h 25.0 mph /  40.2 km/h 84 % 0.00 in /  0 mm 0 W/m2
19:12 53.2 °F /  11.8 °C 48.2 °F /  9 °C 30.07 in /  1018.2 hPa West 17.0 mph /  27.4 km/h 24.0 mph /  38.6 km/h 83 % 0.00 in /  0 mm 0 W/m2
19:17 53.2 °F /  11.8 °C 48.2 °F /  9 °C 30.07 in /  1018.2 hPa West 11.0 mph /  17.7 km/h 21.0 mph /  33.8 km/h 83 % 0.00 in /  0 mm 0 W/m2
19:22 53.2 °F /  11.8 °C 48.2 °F /  9 °C 30.07 in /  1018.2 hPa WNW 13.0 mph /  20.9 km/h 20.0 mph /  32.2 km/h 83 % 0.00 in /  0 mm 0 W/m2
19:27 53.1 °F /  11.7 °C 48.0 °F /  8.9 °C 30.07 in /  1018.2 hPa West 15.0 mph /  24.1 km/h 22.0 mph /  35.4 km/h 83 % 0.00 in /  0 mm 0 W/m2
19:32 53.1 °F /  11.7 °C 47.7 °F /  8.7 °C 30.07 in /  1018.2 hPa West 16.0 mph /  25.7 km/h 30.0 mph /  48.3 km/h 82 % 0.00 in /  0 mm 0 W/m2
19:37 53.1 °F /  11.7 °C 47.7 °F /  8.7 °C 30.07 in /  1018.2 hPa West 12.0 mph /  19.3 km/h 18.0 mph /  29 km/h 82 % 0.00 in /  0 mm 0 W/m2
19:42 52.9 °F /  11.6 °C 47.2 °F /  8.4 °C 30.07 in /  1018.2 hPa West 18.0 mph /  29 km/h 28.0 mph /  45.1 km/h 81 % 0.00 in /  0 mm 0 W/m2
19:47 52.9 °F /  11.6 °C 46.9 °F /  8.3 °C 30.08 in /  1018.5 hPa West 17.0 mph /  27.4 km/h 29.0 mph /  46.7 km/h 80 % 0.00 in /  0 mm 0 W/m2
19:52 52.9 °F /  11.6 °C 46.9 °F /  8.3 °C 30.08 in /  1018.5 hPa West 15.0 mph /  24.1 km/h 23.0 mph /  37 km/h 80 % 0.00 in /  0 mm 0 W/m2
19:57 52.7 °F /  11.5 °C 46.7 °F /  8.2 °C 30.09 in /  1018.8 hPa West 18.0 mph /  29 km/h 33.0 mph /  53.1 km/h 80 % 0.00 in /  0 mm 0 W/m2
20:02 52.5 °F /  11.4 °C 46.2 °F /  7.9 °C 30.09 in /  1018.8 hPa WNW 21.0 mph /  33.8 km/h 28.0 mph /  45.1 km/h 79 % 0.00 in /  0 mm 0 W/m2
20:07 52.3 °F /  11.3 °C 46.0 °F /  7.8 °C 30.10 in /  1019.2 hPa West 12.0 mph /  19.3 km/h 22.0 mph /  35.4 km/h 79 % 0.00 in /  0 mm 0 W/m2
20:13 52.2 °F /  11.2 °C 45.8 °F /  7.7 °C 30.10 in /  1019.2 hPa WNW 15.0 mph /  24.1 km/h 27.0 mph /  43.5 km/h 79 % 0.00 in /  0 mm 0 W/m2
20:17 52.2 °F /  11.2 °C 45.8 °F /  7.7 °C 30.10 in /  1019.2 hPa West 16.0 mph /  25.7 km/h 27.0 mph /  43.5 km/h 79 % 0.00 in /  0 mm 0 W/m2
20:23 52.2 °F /  11.2 °C 45.8 °F /  7.7 °C 30.10 in /  1019.2 hPa West 15.0 mph /  24.1 km/h 24.0 mph /  38.6 km/h 79 % 0.00 in /  0 mm 0 W/m2
20:28 52.0 °F /  11.1 °C 46.0 °F /  7.8 °C 30.10 in /  1019.2 hPa West 12.0 mph /  19.3 km/h 22.0 mph /  35.4 km/h 80 % 0.00 in /  0 mm 0 W/m2
20:33 52.0 °F /  11.1 °C 46.0 °F /  7.8 °C 30.11 in /  1019.5 hPa West 13.0 mph /  20.9 km/h 25.0 mph /  40.2 km/h 80 % 0.00 in /  0 mm 0 W/m2
20:38 51.8 °F /  11 °C 45.5 °F /  7.5 °C 30.11 in /  1019.5 hPa West 14.0 mph /  22.5 km/h 22.0 mph /  35.4 km/h 79 % 0.00 in /  0 mm 0 W/m2
20:43 51.8 °F /  11 °C 45.5 °F /  7.5 °C 30.12 in /  1019.9 hPa West 13.0 mph /  20.9 km/h 24.0 mph /  38.6 km/h 79 % 0.00 in /  0 mm 0 W/m2
20:48 51.6 °F /  10.9 °C 45.3 °F /  7.4 °C 30.12 in /  1019.9 hPa West 9.0 mph /  14.5 km/h 16.0 mph /  25.7 km/h 79 % 0.00 in /  0 mm 0 W/m2
20:53 51.4 °F /  10.8 °C 45.1 °F /  7.3 °C 30.12 in /  1019.9 hPa West 14.0 mph /  22.5 km/h 22.0 mph /  35.4 km/h 79 % 0.00 in /  0 mm 0 W/m2
20:58 51.3 °F /  10.7 °C 45.0 °F /  7.2 °C 30.12 in /  1019.9 hPa West 10.0 mph /  16.1 km/h 15.0 mph /  24.1 km/h 79 % 0.00 in /  0 mm 0 W/m2
21:03 51.3 °F /  10.7 °C 45.0 °F /  7.2 °C 30.12 in /  1019.9 hPa West 14.0 mph /  22.5 km/h 24.0 mph /  38.6 km/h 79 % 0.00 in /  0 mm 0 W/m2
21:08 51.1 °F /  10.6 °C 44.8 °F /  7.1 °C 30.12 in /  1019.9 hPa West 17.0 mph /  27.4 km/h 26.0 mph /  41.8 km/h 79 % 0.00 in /  0 mm 0 W/m2
21:13 50.9 °F /  10.5 °C 44.6 °F /  7 °C 30.12 in /  1019.9 hPa West 12.0 mph /  19.3 km/h 23.0 mph /  37 km/h 79 % 0.00 in /  0 mm 0 W/m2
21:18 50.7 °F /  10.4 °C 44.4 °F /  6.9 °C 30.12 in /  1019.9 hPa West 12.0 mph /  19.3 km/h 19.0 mph /  30.6 km/h 79 % 0.00 in /  0 mm 0 W/m2
21:23 50.5 °F /  10.3 °C 44.3 °F /  6.8 °C 30.13 in /  1020.2 hPa West 10.0 mph /  16.1 km/h 15.0 mph /  24.1 km/h 79 % 0.00 in /  0 mm 0 W/m2
21:28 50.2 °F /  10.1 °C 43.6 °F /  6.4 °C 30.13 in /  1020.2 hPa West 12.0 mph /  19.3 km/h 20.0 mph /  32.2 km/h 78 % 0.00 in /  0 mm 0 W/m2
21:33 50.2 °F /  10.1 °C 43.6 °F /  6.4 °C 30.13 in /  1020.2 hPa West 12.0 mph /  19.3 km/h 19.0 mph /  30.6 km/h 78 % 0.00 in /  0 mm 0 W/m2
21:38 50.0 °F /  10 °C 43.4 °F /  6.3 °C 30.14 in /  1020.5 hPa West 13.0 mph /  20.9 km/h 21.0 mph /  33.8 km/h 78 % 0.00 in /  0 mm 0 W/m2
21:43 49.8 °F /  9.9 °C 42.9 °F /  6.1 °C 30.14 in /  1020.5 hPa West 14.0 mph /  22.5 km/h 22.0 mph /  35.4 km/h 77 % 0.00 in /  0 mm 0 W/m2
21:48 49.8 °F /  9.9 °C 42.9 °F /  6.1 °C 30.15 in /  1020.9 hPa West 13.0 mph /  20.9 km/h 20.0 mph /  32.2 km/h 77 % 0.00 in /  0 mm 0 W/m2
21:53 49.6 °F /  9.8 °C 42.7 °F /  5.9 °C 30.15 in /  1020.9 hPa West 16.0 mph /  25.7 km/h 24.0 mph /  38.6 km/h 77 % 0.00 in /  0 mm 0 W/m2
21:58 49.5 °F /  9.7 °C 42.2 °F /  5.7 °C 30.15 in /  1020.9 hPa West 14.0 mph /  22.5 km/h 24.0 mph /  38.6 km/h 76 % 0.00 in /  0 mm 0 W/m2
22:03 49.3 °F /  9.6 °C 42.0 °F /  5.6 °C 30.15 in /  1020.9 hPa West 14.0 mph /  22.5 km/h 20.0 mph /  32.2 km/h 76 % 0.00 in /  0 mm 0 W/m2
22:08 49.1 °F /  9.5 °C 41.9 °F /  5.5 °C 30.15 in /  1020.9 hPa West 14.0 mph /  22.5 km/h 20.0 mph /  32.2 km/h 76 % 0.00 in /  0 mm 0 W/m2
22:13 48.9 °F /  9.4 °C 41.7 °F /  5.4 °C 30.16 in /  1021.2 hPa West 14.0 mph /  22.5 km/h 23.0 mph /  37 km/h 76 % 0.00 in /  0 mm 0 W/m2
22:18 48.9 °F /  9.4 °C 41.7 °F /  5.4 °C 30.16 in /  1021.2 hPa WNW 12.0 mph /  19.3 km/h 23.0 mph /  37 km/h 76 % 0.00 in /  0 mm 0 W/m2
22:23 48.9 °F /  9.4 °C 41.7 °F /  5.4 °C 30.17 in /  1021.6 hPa WNW 15.0 mph /  24.1 km/h 23.0 mph /  37 km/h 76 % 0.00 in /  0 mm 0 W/m2
22:28 48.7 °F /  9.3 °C 41.5 °F /  5.3 °C 30.17 in /  1021.6 hPa WNW 10.0 mph /  16.1 km/h 14.0 mph /  22.5 km/h 76 % 0.00 in /  0 mm 0 W/m2
22:33 48.7 °F /  9.3 °C 41.5 °F /  5.3 °C 30.17 in /  1021.6 hPa WNW 13.0 mph /  20.9 km/h 21.0 mph /  33.8 km/h 76 % 0.00 in /  0 mm 0 W/m2
22:38 48.7 °F /  9.3 °C 41.5 °F /  5.3 °C 30.18 in /  1021.9 hPa WNW 10.0 mph /  16.1 km/h 19.0 mph /  30.6 km/h 76 % 0.00 in /  0 mm 0 W/m2
22:43 48.7 °F /  9.3 °C 41.8 °F /  5.4 °C 30.18 in /  1021.9 hPa WNW 11.0 mph /  17.7 km/h 16.0 mph /  25.7 km/h 77 % 0.00 in /  0 mm 0 W/m2
22:48 48.7 °F /  9.3 °C 42.2 °F /  5.7 °C 30.19 in /  1022.2 hPa West 9.0 mph /  14.5 km/h 14.0 mph /  22.5 km/h 78 % 0.00 in /  0 mm 0 W/m2
22:53 48.7 °F /  9.3 °C 42.2 °F /  5.7 °C 30.19 in /  1022.2 hPa West 11.0 mph /  17.7 km/h 20.0 mph /  32.2 km/h 78 % 0.00 in /  0 mm 0 W/m2
22:58 48.7 °F /  9.3 °C 42.5 °F /  5.8 °C 30.18 in /  1021.9 hPa West 7.0 mph /  11.3 km/h 13.0 mph /  20.9 km/h 79 % 0.00 in /  0 mm 0 W/m2
23:03 48.6 °F /  9.2 °C 42.3 °F /  5.7 °C 30.18 in /  1021.9 hPa West 9.0 mph /  14.5 km/h 13.0 mph /  20.9 km/h 79 % 0.00 in /  0 mm 0 W/m2
23:08 48.4 °F /  9.1 °C 42.2 °F /  5.7 °C 30.18 in /  1021.9 hPa West 12.0 mph /  19.3 km/h 19.0 mph /  30.6 km/h 79 % 0.00 in /  0 mm 0 W/m2
23:13 48.4 °F /  9.1 °C 42.2 °F /  5.7 °C 30.18 in /  1021.9 hPa West 11.0 mph /  17.7 km/h 16.0 mph /  25.7 km/h 79 % 0.00 in /  0 mm 0 W/m2
23:18 48.4 °F /  9.1 °C 42.2 °F /  5.7 °C 30.19 in /  1022.2 hPa West 12.0 mph /  19.3 km/h 20.0 mph /  32.2 km/h 79 % 0.00 in /  0 mm 0 W/m2
23:23 48.2 °F /  9 °C 42.3 °F /  5.7 °C 30.18 in /  1021.9 hPa West 9.0 mph /  14.5 km/h 16.0 mph /  25.7 km/h 80 % 0.00 in /  0 mm 0 W/m2
23:28 48.0 °F /  8.9 °C 42.1 °F /  5.6 °C 30.18 in /  1021.9 hPa West 14.0 mph /  22.5 km/h 23.0 mph /  37 km/h 80 % 0.00 in /  0 mm 0 W/m2
23:33 48.0 °F /  8.9 °C 42.1 °F /  5.6 °C 30.19 in /  1022.2 hPa West 14.0 mph /  22.5 km/h 24.0 mph /  38.6 km/h 80 % 0.00 in /  0 mm 0 W/m2
23:38 48.2 °F /  9 °C 42.3 °F /  5.7 °C 30.19 in /  1022.2 hPa West 12.0 mph /  19.3 km/h 20.0 mph /  32.2 km/h 80 % 0.00 in /  0 mm 0 W/m2
23:43 48.0 °F /  8.9 °C 42.5 °F /  5.8 °C 30.19 in /  1022.2 hPa West 14.0 mph /  22.5 km/h 22.0 mph /  35.4 km/h 81 % 0.00 in /  0 mm 0 W/m2
23:48 48.0 °F /  8.9 °C 42.5 °F /  5.8 °C 30.20 in /  1022.6 hPa West 13.0 mph /  20.9 km/h 19.0 mph /  30.6 km/h 81 % 0.00 in /  0 mm 0 W/m2
23:54 47.8 °F /  8.8 °C 42.3 °F /  5.7 °C 30.20 in /  1022.6 hPa West 10.0 mph /  16.1 km/h 16.0 mph /  25.7 km/h 81 % 0.00 in /  0 mm 0 W/m2
23:59 47.8 °F /  8.8 °C 42.3 °F /  5.7 °C 30.20 in /  1022.6 hPa West 14.0 mph /  22.5 km/h 22.0 mph /  35.4 km/h 81 % 0.00 in /  0 mm 0 W/m2
Delerius-Weather
Compliments of Weather Underground - 2 mb

Data updates at regular intervals.